createdAt,value
2023-03-06T00:00:04.655Z,18.84
2023-03-06T00:00:14.637Z,18.86
2023-03-06T00:00:24.679Z,18.83
2023-03-06T00:00:44.675Z,18.82
2023-03-06T00:00:54.646Z,18.84
2023-03-06T00:01:04.662Z,18.84
2023-03-06T00:01:14.625Z,18.82
2023-03-06T00:01:24.640Z,18.82
2023-03-06T00:01:34.623Z,18.84
2023-03-06T00:01:44.672Z,18.83
2023-03-06T00:01:54.625Z,18.84
2023-03-06T00:02:04.641Z,18.84
2023-03-06T00:02:14.620Z,18.83
2023-03-06T00:02:24.633Z,18.86
2023-03-06T00:02:34.625Z,18.82
2023-03-06T00:02:44.661Z,18.84
2023-03-06T00:02:54.614Z,18.84
2023-03-06T00:03:14.616Z,18.83
2023-03-06T00:03:24.661Z,18.83
2023-03-06T00:03:34.668Z,18.84
2023-03-06T00:03:44.654Z,18.87
2023-03-06T00:03:54.678Z,18.87
2023-03-06T00:04:04.665Z,18.84
2023-03-06T00:04:14.608Z,18.86
2023-03-06T00:04:24.620Z,18.86
2023-03-06T00:04:34.614Z,18.84
2023-03-06T00:04:44.660Z,18.86
2023-03-06T00:04:54.604Z,18.86
2023-03-06T00:05:04.617Z,18.84
2023-03-06T00:05:14.598Z,18.83
2023-03-06T00:05:24.667Z,18.83
2023-03-06T00:05:44.758Z,18.84
2023-03-06T00:05:54.617Z,18.86
2023-03-06T00:06:04.679Z,18.83
2023-03-06T00:06:14.623Z,18.84
2023-03-06T00:06:24.610Z,18.83
2023-03-06T00:06:34.602Z,18.84
2023-03-06T00:06:44.606Z,18.82
2023-03-06T00:06:54.585Z,18.86
2023-03-06T00:07:04.622Z,18.83
2023-03-06T00:07:14.585Z,18.84
2023-03-06T00:07:24.619Z,18.86
2023-03-06T00:07:34.593Z,18.86
2023-03-06T00:07:44.601Z,18.84
2023-03-06T00:08:04.616Z,18.84
2023-03-06T00:08:14.583Z,18.84
2023-03-06T00:08:24.594Z,18.83
2023-03-06T00:08:34.585Z,18.83
2023-03-06T00:08:44.627Z,18.84
2023-03-06T00:08:54.586Z,18.83
2023-03-06T00:09:04.605Z,18.82
2023-03-06T00:09:14.573Z,18.84
2023-03-06T00:09:24.586Z,18.84
2023-03-06T00:09:34.571Z,18.82
2023-03-06T00:09:44.601Z,18.86
2023-03-06T00:09:54.571Z,18.86
2023-03-06T00:10:04.584Z,18.79
2023-03-06T00:10:14.562Z,18.83
2023-03-06T00:10:34.568Z,18.83
2023-03-06T00:10:44.619Z,18.82
2023-03-06T00:10:54.557Z,18.83
2023-03-06T00:11:04.576Z,18.83
2023-03-06T00:11:14.560Z,18.83
2023-03-06T00:11:24.578Z,18.83
2023-03-06T00:11:34.565Z,18.84
2023-03-06T00:11:44.589Z,18.86
2023-03-06T00:11:54.554Z,18.83
2023-03-06T00:12:04.567Z,18.83
2023-03-06T00:12:14.549Z,18.86
2023-03-06T00:12:24.576Z,18.83
2023-03-06T00:12:34.576Z,18.86
2023-03-06T00:12:44.580Z,18.84
2023-03-06T00:12:54.560Z,18.84
2023-03-06T00:13:04.560Z,18.83
2023-03-06T00:13:14.558Z,18.86
2023-03-06T00:13:24.572Z,18.87
2023-03-06T00:13:34.578Z,18.83
2023-03-06T00:13:44.547Z,18.83
2023-03-06T00:13:54.574Z,18.84
2023-03-06T00:14:04.537Z,18.84
2023-03-06T00:14:14.554Z,18.82
2023-03-06T00:14:24.532Z,18.83
2023-03-06T00:14:34.553Z,18.82
2023-03-06T00:14:44.549Z,18.82
2023-03-06T00:14:54.560Z,18.86
2023-03-06T00:15:05.757Z,18.83
2023-03-06T00:15:14.546Z,18.83
2023-03-06T00:15:24.534Z,18.82
2023-03-06T00:15:44.550Z,18.83
2023-03-06T00:15:54.626Z,18.79
2023-03-06T00:16:04.576Z,18.78
2023-03-06T00:16:14.657Z,18.78
2023-03-06T00:16:24.582Z,18.79
2023-03-06T00:16:34.615Z,18.75
2023-03-06T00:16:44.548Z,18.79
2023-03-06T00:16:54.537Z,18.78
2023-03-06T00:17:04.518Z,18.79
2023-03-06T00:17:14.530Z,18.76
2023-03-06T00:17:24.517Z,18.78
2023-03-06T00:17:34.530Z,18.78
2023-03-06T00:17:44.555Z,18.76
2023-03-06T00:17:54.529Z,18.76
2023-03-06T00:18:14.546Z,18.78
2023-03-06T00:18:24.515Z,18.79
2023-03-06T00:18:34.523Z,18.79
2023-03-06T00:18:44.537Z,18.76
2023-03-06T00:18:54.523Z,18.82
2023-03-06T00:19:04.503Z,18.79
2023-03-06T00:19:14.519Z,18.79
2023-03-06T00:19:24.500Z,18.79
2023-03-06T00:19:34.532Z,18.82
2023-03-06T00:19:44.500Z,18.82
2023-03-06T00:19:54.516Z,18.82
2023-03-06T00:20:04.499Z,18.79
2023-03-06T00:20:14.534Z,18.82
2023-03-06T00:20:34.526Z,18.83
2023-03-06T00:20:44.485Z,18.82
2023-03-06T00:20:54.518Z,18.83
2023-03-06T00:21:04.516Z,18.82
2023-03-06T00:21:14.513Z,18.82
2023-03-06T00:21:24.485Z,18.84
2023-03-06T00:21:34.524Z,18.82
2023-03-06T00:21:44.487Z,18.82
2023-03-06T00:21:54.512Z,18.84
2023-03-06T00:22:04.491Z,18.84
2023-03-06T00:22:14.515Z,18.84
2023-03-06T00:22:24.474Z,18.83
2023-03-06T00:22:34.508Z,18.84
2023-03-06T00:22:44.478Z,18.86
2023-03-06T00:23:04.474Z,18.82
2023-03-06T00:23:14.503Z,18.79
2023-03-06T00:23:24.478Z,18.79
2023-03-06T00:23:34.502Z,18.84
2023-03-06T00:23:44.470Z,18.82
2023-03-06T00:23:54.498Z,18.83
2023-03-06T00:24:04.467Z,18.83
2023-03-06T00:24:14.497Z,18.82
2023-03-06T00:24:24.475Z,18.83
2023-03-06T00:24:34.504Z,18.82
2023-03-06T00:24:44.468Z,18.82
2023-03-06T00:24:54.501Z,18.83
2023-03-06T00:25:04.461Z,18.82
2023-03-06T00:25:14.487Z,18.83
2023-03-06T00:25:34.487Z,18.84
2023-03-06T00:25:44.475Z,18.83
2023-03-06T00:25:54.486Z,18.87
2023-03-06T00:26:04.454Z,18.84
2023-03-06T00:26:14.494Z,18.83
2023-03-06T00:26:24.456Z,18.83
2023-03-06T00:26:34.477Z,18.84
2023-03-06T00:26:44.450Z,18.83
2023-03-06T00:26:54.489Z,18.83
2023-03-06T00:27:04.445Z,18.79
2023-03-06T00:27:14.490Z,18.86
2023-03-06T00:27:24.441Z,18.83
2023-03-06T00:27:34.494Z,18.83
2023-03-06T00:27:44.440Z,18.84
2023-03-06T00:28:04.443Z,18.86
2023-03-06T00:28:14.464Z,18.86
2023-03-06T00:28:24.435Z,18.84
2023-03-06T00:28:34.482Z,18.82
2023-03-06T00:28:44.450Z,18.83
2023-03-06T00:28:54.461Z,18.83
2023-03-06T00:29:04.430Z,18.82
2023-03-06T00:29:14.461Z,18.82
2023-03-06T00:29:24.426Z,18.82
2023-03-06T00:29:34.460Z,18.83
2023-03-06T00:29:44.457Z,18.79
2023-03-06T00:29:54.454Z,18.82
2023-03-06T00:30:04.421Z,18.82
2023-03-06T00:30:14.456Z,18.84
2023-03-06T00:30:34.453Z,18.84
2023-03-06T00:30:44.429Z,18.82
2023-03-06T00:30:54.446Z,18.83
2023-03-06T00:31:04.420Z,18.83
2023-03-06T00:31:14.497Z,18.83
2023-03-06T00:31:24.434Z,18.82
2023-03-06T00:31:34.489Z,18.83
2023-03-06T00:31:44.452Z,18.83
2023-03-06T00:31:54.441Z,18.84
2023-03-06T00:32:04.438Z,18.84
2023-03-06T00:32:14.552Z,18.84
2023-03-06T00:32:24.448Z,18.83
2023-03-06T00:32:34.493Z,18.83
2023-03-06T00:32:54.438Z,18.83
2023-03-06T00:33:04.399Z,18.83
2023-03-06T00:33:14.433Z,18.84
2023-03-06T00:33:24.400Z,18.83
2023-03-06T00:33:34.426Z,18.83
2023-03-06T00:33:44.398Z,18.83
2023-03-06T00:33:54.426Z,18.83
2023-03-06T00:34:04.397Z,18.79
2023-03-06T00:34:14.426Z,18.82
2023-03-06T00:34:24.394Z,18.86
2023-03-06T00:34:34.426Z,18.82
2023-03-06T00:34:44.387Z,18.84
2023-03-06T00:34:54.419Z,18.83
2023-03-06T00:35:04.389Z,18.84
2023-03-06T00:35:24.477Z,18.82
2023-03-06T00:35:34.472Z,18.82
2023-03-06T00:35:44.546Z,18.84
2023-03-06T00:35:54.503Z,18.86
2023-03-06T00:36:04.378Z,18.82
2023-03-06T00:36:14.407Z,18.84
2023-03-06T00:36:24.376Z,18.82
2023-03-06T00:36:34.389Z,18.83
2023-03-06T00:36:44.376Z,18.82
2023-03-06T00:36:54.394Z,18.82
2023-03-06T00:37:04.369Z,18.82
2023-03-06T00:37:14.389Z,18.82
2023-03-06T00:37:24.370Z,18.84
2023-03-06T00:37:34.399Z,18.83
2023-03-06T00:37:54.382Z,18.86
2023-03-06T00:38:04.368Z,18.82
2023-03-06T00:38:14.402Z,18.79
2023-03-06T00:38:24.374Z,18.83
2023-03-06T00:38:34.392Z,18.79
2023-03-06T00:38:44.374Z,18.84
2023-03-06T00:38:54.387Z,18.79
2023-03-06T00:39:04.355Z,18.79
2023-03-06T00:39:14.370Z,18.83
2023-03-06T00:39:24.369Z,18.83
2023-03-06T00:39:34.384Z,18.82
2023-03-06T00:39:44.353Z,18.78
2023-03-06T00:39:54.368Z,18.79
2023-03-06T00:40:04.348Z,18.79
2023-03-06T00:40:24.349Z,18.82
2023-03-06T00:40:34.366Z,18.82
2023-03-06T00:40:44.345Z,18.79
2023-03-06T00:40:54.361Z,18.82
2023-03-06T00:41:04.344Z,18.82
2023-03-06T00:41:14.376Z,18.79
2023-03-06T00:41:24.336Z,18.82
2023-03-06T00:41:34.356Z,18.82
2023-03-06T00:41:46.873Z,18.82
2023-03-06T00:41:54.350Z,18.83
2023-03-06T00:42:04.341Z,18.82
2023-03-06T00:42:14.858Z,18.82
2023-03-06T00:42:24.334Z,18.82
2023-03-06T00:42:34.366Z,18.82
2023-03-06T00:42:54.355Z,18.82
2023-03-06T00:43:04.328Z,18.83
2023-03-06T00:43:14.345Z,18.78
2023-03-06T00:43:24.331Z,18.82
2023-03-06T00:43:34.343Z,18.84
2023-03-06T00:43:44.322Z,18.83
2023-03-06T00:43:54.339Z,18.79
2023-03-06T00:44:04.320Z,18.79
2023-03-06T00:44:14.337Z,18.79
2023-03-06T00:44:24.317Z,18.82
2023-03-06T00:44:34.335Z,18.78
2023-03-06T00:44:44.317Z,18.83
2023-03-06T00:44:54.332Z,18.82
2023-03-06T00:45:04.311Z,18.82
2023-03-06T00:45:24.415Z,18.84
2023-03-06T00:45:34.360Z,18.83
2023-03-06T00:45:44.392Z,18.79
2023-03-06T00:45:54.382Z,18.83
2023-03-06T00:46:04.359Z,18.83
2023-03-06T00:46:14.343Z,18.82
2023-03-06T00:46:24.307Z,18.82
2023-03-06T00:46:34.326Z,18.76
2023-03-06T00:46:44.302Z,18.79
2023-03-06T00:46:54.329Z,18.82
2023-03-06T00:47:04.302Z,18.83
2023-03-06T00:47:14.334Z,18.79
2023-03-06T00:47:24.305Z,18.79
2023-03-06T00:47:44.293Z,18.82
2023-03-06T00:47:54.340Z,18.79
2023-03-06T00:48:04.291Z,18.82
2023-03-06T00:48:14.312Z,18.79
2023-03-06T00:48:24.298Z,18.79
2023-03-06T00:48:34.314Z,18.83
2023-03-06T00:48:44.283Z,18.79
2023-03-06T00:48:54.301Z,18.82
2023-03-06T00:49:04.284Z,18.82
2023-03-06T00:49:14.300Z,18.83
2023-03-06T00:49:24.282Z,18.83
2023-03-06T00:49:34.313Z,18.83
2023-03-06T00:49:44.288Z,18.82
2023-03-06T00:49:54.299Z,18.83
2023-03-06T00:50:14.320Z,18.84
2023-03-06T00:50:24.274Z,18.83
2023-03-06T00:50:34.317Z,18.83
2023-03-06T00:50:44.270Z,18.83
2023-03-06T00:50:54.286Z,18.79
2023-03-06T00:51:04.269Z,18.83
2023-03-06T00:51:14.282Z,18.82
2023-03-06T00:51:24.266Z,18.83
2023-03-06T00:51:34.300Z,18.83
2023-03-06T00:51:44.265Z,18.83
2023-03-06T00:51:54.305Z,18.84
2023-03-06T00:52:04.262Z,18.82
2023-03-06T00:52:14.294Z,18.83
2023-03-06T00:52:24.258Z,18.84
2023-03-06T00:52:44.259Z,18.82
2023-03-06T00:52:54.297Z,18.83
2023-03-06T00:53:04.277Z,18.84
2023-03-06T00:53:14.283Z,18.79
2023-03-06T00:53:24.256Z,18.83
2023-03-06T00:53:34.295Z,18.82
2023-03-06T00:53:44.252Z,18.83
2023-03-06T00:53:54.277Z,18.83
2023-03-06T00:54:04.248Z,18.78
2023-03-06T00:54:14.282Z,18.79
2023-03-06T00:54:24.246Z,18.78
2023-03-06T00:54:34.278Z,18.83
2023-03-06T00:54:44.247Z,18.83
2023-03-06T00:55:04.259Z,18.78
2023-03-06T00:55:14.263Z,18.82
2023-03-06T00:55:24.240Z,18.79
2023-03-06T00:55:34.236Z,18.82
2023-03-06T00:55:44.266Z,18.82
2023-03-06T00:55:54.236Z,18.79
2023-03-06T00:56:04.248Z,18.82
2023-03-06T00:56:14.232Z,18.78
2023-03-06T00:56:24.266Z,18.82
2023-03-06T00:56:34.235Z,18.82
2023-03-06T00:56:44.242Z,18.82
2023-03-06T00:56:54.231Z,18.83
2023-03-06T00:57:04.244Z,18.78
2023-03-06T00:57:14.223Z,18.82
2023-03-06T00:57:34.221Z,18.79
2023-03-06T00:57:44.257Z,18.82
2023-03-06T00:57:54.243Z,18.79
2023-03-06T00:58:04.239Z,18.82
2023-03-06T00:58:14.226Z,18.82
2023-03-06T00:58:24.247Z,18.83
2023-03-06T00:58:34.220Z,18.82
2023-03-06T00:58:44.237Z,18.82
2023-03-06T00:58:54.221Z,18.78
2023-03-06T00:59:04.254Z,18.84
2023-03-06T00:59:14.216Z,18.83
2023-03-06T00:59:24.248Z,18.82
2023-03-06T00:59:34.215Z,18.82
2023-03-06T00:59:44.249Z,18.83
2023-03-06T01:00:04.237Z,18.82
2023-03-06T01:00:14.203Z,18.79
2023-03-06T01:00:24.244Z,18.83
2023-03-06T01:00:34.199Z,18.83
2023-03-06T01:00:44.245Z,18.82
2023-03-06T01:00:54.216Z,18.79
2023-03-06T01:01:04.338Z,18.79
2023-03-06T01:01:14.242Z,18.79
2023-03-06T01:01:24.226Z,18.83
2023-03-06T01:01:34.208Z,18.82
2023-03-06T01:01:44.230Z,18.83
2023-03-06T01:01:54.203Z,18.82
2023-03-06T01:02:04.241Z,18.82
2023-03-06T01:02:24.262Z,18.84
2023-03-06T01:02:34.242Z,18.82
2023-03-06T01:02:44.223Z,18.82
2023-03-06T01:02:54.177Z,18.83
2023-03-06T01:03:04.215Z,18.82
2023-03-06T01:03:14.182Z,18.83
2023-03-06T01:03:24.205Z,18.83
2023-03-06T01:03:34.184Z,18.83
2023-03-06T01:03:44.202Z,18.82
2023-03-06T01:03:54.177Z,18.82
2023-03-06T01:04:04.207Z,18.82
2023-03-06T01:04:14.179Z,18.84
2023-03-06T01:04:24.194Z,18.83
2023-03-06T01:04:34.175Z,18.86
2023-03-06T01:04:54.184Z,18.82
2023-03-06T01:05:04.202Z,18.79
2023-03-06T01:05:14.181Z,18.82
2023-03-06T01:05:24.195Z,18.82
2023-03-06T01:05:34.162Z,18.82
2023-03-06T01:05:44.179Z,18.82
2023-03-06T01:05:54.165Z,18.83
2023-03-06T01:06:04.194Z,18.83
2023-03-06T01:06:14.161Z,18.79
2023-03-06T01:06:24.200Z,18.78
2023-03-06T01:06:34.161Z,18.82
2023-03-06T01:06:44.190Z,18.82
2023-03-06T01:06:54.154Z,18.79
2023-03-06T01:07:04.186Z,18.79
2023-03-06T01:07:24.194Z,18.83
2023-03-06T01:07:34.148Z,18.82
2023-03-06T01:07:44.183Z,18.79
2023-03-06T01:07:54.148Z,18.78
2023-03-06T01:08:04.185Z,18.79
2023-03-06T01:08:14.148Z,18.78
2023-03-06T01:08:24.188Z,18.82
2023-03-06T01:08:34.150Z,18.83
2023-03-06T01:08:44.176Z,18.82
2023-03-06T01:08:54.141Z,18.79
2023-03-06T01:09:04.185Z,18.82
2023-03-06T01:09:14.140Z,18.82
2023-03-06T01:09:24.177Z,18.82
2023-03-06T01:09:44.165Z,18.78
2023-03-06T01:09:54.136Z,18.78
2023-03-06T01:10:04.164Z,18.78
2023-03-06T01:10:14.131Z,18.79
2023-03-06T01:10:24.179Z,18.79
2023-03-06T01:10:34.124Z,18.79
2023-03-06T01:10:44.159Z,18.84
2023-03-06T01:10:54.122Z,18.82
2023-03-06T01:11:04.146Z,18.82
2023-03-06T01:11:14.128Z,18.82
2023-03-06T01:11:24.134Z,18.78
2023-03-06T01:11:34.120Z,18.79
2023-03-06T01:11:44.150Z,18.79
2023-03-06T01:11:54.115Z,18.79
2023-03-06T01:12:14.118Z,18.82
2023-03-06T01:12:24.160Z,18.83
2023-03-06T01:12:34.129Z,18.78
2023-03-06T01:12:44.126Z,18.78
2023-03-06T01:12:54.110Z,18.78
2023-03-06T01:13:04.125Z,18.79
2023-03-06T01:13:14.111Z,18.82
2023-03-06T01:13:24.123Z,18.78
2023-03-06T01:13:34.104Z,18.78
2023-03-06T01:13:44.121Z,18.78
2023-03-06T01:13:54.102Z,18.78
2023-03-06T01:14:04.119Z,18.82
2023-03-06T01:14:14.100Z,18.84
2023-03-06T01:14:24.156Z,18.83
2023-03-06T01:14:44.114Z,18.79
2023-03-06T01:14:54.097Z,18.79
2023-03-06T01:15:04.112Z,18.79
2023-03-06T01:15:14.094Z,18.82
2023-03-06T01:15:24.125Z,18.79
2023-03-06T01:15:34.089Z,18.79
2023-03-06T01:15:44.127Z,18.83
2023-03-06T01:15:54.130Z,18.82
2023-03-06T01:16:04.138Z,18.82
2023-03-06T01:16:14.088Z,18.79
2023-03-06T01:16:24.162Z,18.83
2023-03-06T01:16:34.153Z,18.82
2023-03-06T01:16:44.174Z,18.82
2023-03-06T01:16:54.083Z,18.82
2023-03-06T01:17:04.114Z,18.79
2023-03-06T01:17:14.077Z,18.78
2023-03-06T01:17:24.107Z,18.82
2023-03-06T01:17:34.074Z,18.79
2023-03-06T01:17:44.147Z,18.78
2023-03-06T01:17:54.077Z,18.79
2023-03-06T01:18:04.227Z,18.83
2023-03-06T01:18:14.070Z,18.82
2023-03-06T01:18:24.101Z,18.79
2023-03-06T01:18:34.068Z,18.79
2023-03-06T01:18:44.117Z,18.79
2023-03-06T01:18:54.061Z,18.83
2023-03-06T01:19:04.094Z,18.82
2023-03-06T01:19:14.260Z,18.83
2023-03-06T01:19:24.080Z,18.79
2023-03-06T01:19:44.093Z,18.79
2023-03-06T01:19:54.061Z,18.79
2023-03-06T01:20:04.089Z,18.83
2023-03-06T01:20:14.057Z,18.82
2023-03-06T01:20:24.075Z,18.79
2023-03-06T01:20:34.057Z,18.84
2023-03-06T01:20:44.091Z,18.83
2023-03-06T01:20:54.062Z,18.79
2023-03-06T01:21:04.064Z,18.79
2023-03-06T01:21:14.054Z,18.78
2023-03-06T01:21:24.087Z,18.82
2023-03-06T01:21:34.045Z,18.83
2023-03-06T01:21:44.072Z,18.82
2023-03-06T01:22:04.060Z,18.83
2023-03-06T01:22:14.046Z,18.79
2023-03-06T01:22:24.055Z,18.82
2023-03-06T01:22:34.042Z,18.79
2023-03-06T01:22:44.062Z,18.79
2023-03-06T01:22:54.051Z,18.82
2023-03-06T01:23:04.069Z,18.82
2023-03-06T01:23:14.034Z,18.83
2023-03-06T01:23:24.047Z,18.79
2023-03-06T01:23:34.032Z,18.83
2023-03-06T01:23:44.053Z,18.78
2023-03-06T01:23:54.033Z,18.82
2023-03-06T01:24:04.046Z,18.79
2023-03-06T01:24:14.031Z,18.82
2023-03-06T01:24:34.023Z,18.79
2023-03-06T01:24:44.074Z,18.82
2023-03-06T01:24:54.021Z,18.83
2023-03-06T01:25:04.054Z,18.82
2023-03-06T01:25:14.026Z,18.82
2023-03-06T01:25:24.034Z,18.79
2023-03-06T01:25:34.022Z,18.78
2023-03-06T01:25:44.049Z,18.82
2023-03-06T01:25:54.016Z,18.82
2023-03-06T01:26:04.050Z,18.79
2023-03-06T01:26:14.011Z,18.82
2023-03-06T01:26:24.047Z,18.82
2023-03-06T01:26:34.012Z,18.78
2023-03-06T01:26:44.048Z,18.79
2023-03-06T01:27:04.038Z,18.79
2023-03-06T01:27:14.008Z,18.83
2023-03-06T01:27:24.024Z,18.83
2023-03-06T01:27:33.999Z,18.83
2023-03-06T01:27:44.045Z,18.82
2023-03-06T01:27:54.015Z,18.82
2023-03-06T01:28:04.062Z,18.79
2023-03-06T01:28:13.998Z,18.82
2023-03-06T01:28:24.037Z,18.82
2023-03-06T01:28:34.039Z,18.83
2023-03-06T01:28:44.037Z,18.83
2023-03-06T01:28:53.992Z,18.78
2023-03-06T01:29:04.011Z,18.79
2023-03-06T01:29:24.023Z,18.79
2023-03-06T01:29:33.993Z,18.82
2023-03-06T01:29:44.009Z,18.79
2023-03-06T01:29:53.990Z,18.79
2023-03-06T01:30:04.020Z,18.76
2023-03-06T01:30:13.986Z,18.82
2023-03-06T01:30:24.002Z,18.79
2023-03-06T01:30:33.980Z,18.83
2023-03-06T01:30:44.009Z,18.78
2023-03-06T01:30:53.978Z,18.79
2023-03-06T01:31:03.999Z,18.79
2023-03-06T01:31:13.975Z,18.78
2023-03-06T01:31:24.052Z,18.76
2023-03-06T01:31:34.014Z,18.74
2023-03-06T01:31:54.067Z,18.76
2023-03-06T01:32:04.121Z,18.78
2023-03-06T01:32:14.038Z,18.75
2023-03-06T01:32:24.013Z,18.78
2023-03-06T01:32:34.062Z,18.75
2023-03-06T01:32:43.999Z,18.76
2023-03-06T01:32:53.970Z,18.79
2023-03-06T01:33:03.982Z,18.75
2023-03-06T01:33:13.977Z,18.78
2023-03-06T01:33:23.993Z,18.76
2023-03-06T01:33:33.960Z,18.79
2023-03-06T01:33:43.992Z,18.82
2023-03-06T01:33:53.955Z,18.79
2023-03-06T01:34:03.993Z,18.79
2023-03-06T01:34:23.988Z,18.79
2023-03-06T01:34:33.952Z,18.78
2023-03-06T01:34:43.987Z,18.82
2023-03-06T01:34:53.974Z,18.79
2023-03-06T01:35:04.007Z,18.79
2023-03-06T01:35:13.945Z,18.79
2023-03-06T01:35:24.040Z,18.76
2023-03-06T01:35:33.981Z,18.79
2023-03-06T01:35:44.024Z,18.78
2023-03-06T01:35:53.987Z,18.79
2023-03-06T01:36:03.976Z,18.76
2023-03-06T01:36:13.941Z,18.78
2023-03-06T01:36:23.959Z,18.79
2023-03-06T01:36:43.954Z,18.82
2023-03-06T01:36:53.937Z,18.79
2023-03-06T01:37:03.962Z,18.84
2023-03-06T01:37:13.934Z,18.79
2023-03-06T01:37:23.994Z,18.78
2023-03-06T01:37:33.933Z,18.83
2023-03-06T01:37:43.955Z,18.82
2023-03-06T01:37:53.930Z,18.78
2023-03-06T01:38:03.962Z,18.82
2023-03-06T01:38:13.958Z,18.82
2023-03-06T01:38:23.936Z,18.79
2023-03-06T01:38:33.942Z,18.76
2023-03-06T01:38:43.932Z,18.83
2023-03-06T01:38:53.944Z,18.79
2023-03-06T01:39:12.949Z,18.83
2023-03-06T01:39:23.934Z,18.78
2023-03-06T01:39:33.933Z,18.83
2023-03-06T01:39:43.923Z,18.82
2023-03-06T01:39:53.979Z,18.82
2023-03-06T01:40:03.917Z,18.82
2023-03-06T01:40:13.965Z,18.82
2023-03-06T01:40:23.920Z,18.79
2023-03-06T01:40:33.924Z,18.79
2023-03-06T01:40:43.913Z,18.82
2023-03-06T01:40:53.953Z,18.83
2023-03-06T01:41:03.910Z,18.79
2023-03-06T01:41:13.925Z,18.82
2023-03-06T01:41:23.904Z,18.82
2023-03-06T01:41:43.913Z,18.79
2023-03-06T01:41:53.935Z,18.83
2023-03-06T01:42:03.901Z,18.79
2023-03-06T01:42:13.945Z,18.79
2023-03-06T01:42:23.912Z,18.79
2023-03-06T01:42:33.913Z,18.79
2023-03-06T01:42:44.949Z,18.82
2023-03-06T01:42:53.934Z,18.84
2023-03-06T01:43:03.896Z,18.78
2023-03-06T01:43:13.925Z,18.79
2023-03-06T01:43:23.894Z,18.79
2023-03-06T01:43:33.927Z,18.79
2023-03-06T01:43:43.897Z,18.79
2023-03-06T01:44:03.893Z,18.79
2023-03-06T01:44:13.947Z,18.79
2023-03-06T01:44:23.890Z,18.79
2023-03-06T01:44:33.914Z,18.82
2023-03-06T01:44:43.884Z,18.78
2023-03-06T01:44:53.918Z,18.82
2023-03-06T01:45:03.881Z,18.83
2023-03-06T01:45:13.919Z,18.82
2023-03-06T01:45:23.881Z,18.83
2023-03-06T01:45:33.931Z,18.83
2023-03-06T01:45:43.925Z,18.83
2023-03-06T01:45:53.972Z,18.82
2023-03-06T01:46:03.917Z,18.83
2023-03-06T01:46:14.105Z,18.82
2023-03-06T01:46:23.897Z,18.79
2023-03-06T01:46:43.877Z,18.83
2023-03-06T01:46:53.894Z,18.79
2023-03-06T01:47:03.867Z,18.82
2023-03-06T01:47:13.881Z,18.79
2023-03-06T01:47:23.865Z,18.82
2023-03-06T01:47:33.883Z,18.78
2023-03-06T01:47:43.864Z,18.82
2023-03-06T01:47:53.896Z,18.82
2023-03-06T01:48:03.861Z,18.79
2023-03-06T01:48:13.880Z,18.79
2023-03-06T01:48:23.860Z,18.79
2023-03-06T01:48:33.880Z,18.82
2023-03-06T01:48:43.856Z,18.82
2023-03-06T01:48:53.888Z,18.82
2023-03-06T01:49:03.851Z,18.82
2023-03-06T01:49:13.894Z,18.78
2023-03-06T01:49:23.852Z,18.83
2023-03-06T01:49:33.867Z,18.79
2023-03-06T01:49:43.848Z,18.76
2023-03-06T01:49:53.880Z,18.82
2023-03-06T01:50:03.856Z,18.78
2023-03-06T01:50:13.874Z,18.78
2023-03-06T01:50:23.844Z,18.78
2023-03-06T01:50:33.880Z,18.78
2023-03-06T01:50:43.843Z,18.78
2023-03-06T01:50:53.876Z,18.82
2023-03-06T01:51:03.839Z,18.78
2023-03-06T01:51:13.857Z,18.78
2023-03-06T01:51:23.838Z,18.79
2023-03-06T01:51:33.893Z,18.79
2023-03-06T01:51:43.844Z,18.79
2023-03-06T01:51:53.867Z,18.78
2023-03-06T01:52:13.868Z,18.79
2023-03-06T01:52:23.832Z,18.78
2023-03-06T01:52:33.866Z,18.82
2023-03-06T01:52:43.828Z,18.79
2023-03-06T01:52:53.860Z,18.79
2023-03-06T01:53:03.828Z,18.79
2023-03-06T01:53:13.841Z,18.78
2023-03-06T01:53:23.826Z,18.79
2023-03-06T01:53:33.837Z,18.82
2023-03-06T01:53:43.820Z,18.79
2023-03-06T01:53:53.853Z,18.82
2023-03-06T01:54:03.820Z,18.79
2023-03-06T01:54:13.834Z,18.78
2023-03-06T01:54:23.818Z,18.82
2023-03-06T01:54:43.826Z,18.82
2023-03-06T01:54:53.848Z,18.75
2023-03-06T01:55:03.820Z,18.79
2023-03-06T01:55:13.822Z,18.79
2023-03-06T01:55:23.833Z,18.79
2023-03-06T01:55:33.834Z,18.79
2023-03-06T01:55:43.808Z,18.79
2023-03-06T01:55:53.834Z,18.78
2023-03-06T01:56:03.807Z,18.79
2023-03-06T01:56:13.842Z,18.78
2023-03-06T01:56:23.808Z,18.78
2023-03-06T01:56:33.815Z,18.83
2023-03-06T01:56:43.798Z,18.78
2023-03-06T01:56:53.832Z,18.79
2023-03-06T01:57:13.818Z,18.82
2023-03-06T01:57:23.815Z,18.78
2023-03-06T01:57:48.432Z,18.78
2023-03-06T01:57:53.110Z,18.79
2023-03-06T01:58:03.138Z,18.78
2023-03-06T01:58:13.106Z,18.78
2023-03-06T01:58:23.160Z,18.79
2023-03-06T01:58:33.106Z,18.82
2023-03-06T01:58:43.122Z,18.79
2023-03-06T01:58:53.101Z,18.79
2023-03-06T01:59:03.130Z,18.79
2023-03-06T01:59:13.101Z,18.78
2023-03-06T01:59:23.136Z,18.82
2023-03-06T01:59:33.102Z,18.79
2023-03-06T01:59:43.150Z,18.79
2023-03-06T01:59:53.156Z,18.79
2023-03-06T02:00:03.127Z,18.82
2023-03-06T02:00:13.092Z,18.78
2023-03-06T02:00:23.110Z,18.82
2023-03-06T02:00:33.090Z,18.78
2023-03-06T02:00:43.103Z,18.82
2023-03-06T02:00:53.120Z,18.78
2023-03-06T02:01:03.158Z,18.79
2023-03-06T02:01:13.262Z,18.78
2023-03-06T02:01:23.304Z,18.79
2023-03-06T02:01:33.094Z,18.79
2023-03-06T02:01:43.101Z,18.79
2023-03-06T02:01:53.083Z,18.79
2023-03-06T02:02:03.154Z,18.76
2023-03-06T02:02:13.197Z,18.79
2023-03-06T02:02:23.193Z,18.79
2023-03-06T02:02:33.151Z,18.83
2023-03-06T02:02:43.211Z,18.79
2023-03-06T02:02:53.077Z,18.79
2023-03-06T02:03:03.106Z,18.78
2023-03-06T02:03:13.088Z,18.78
2023-03-06T02:03:23.097Z,18.78
2023-03-06T02:03:33.072Z,18.75
2023-03-06T02:03:43.103Z,18.75
2023-03-06T02:03:53.067Z,18.79
2023-03-06T02:04:03.122Z,18.75
2023-03-06T02:04:13.066Z,18.75
2023-03-06T02:04:23.080Z,18.76
2023-03-06T02:04:33.058Z,18.72
2023-03-06T02:04:43.079Z,18.75
2023-03-06T02:04:53.065Z,18.71
2023-03-06T02:05:03.079Z,18.75
2023-03-06T02:05:13.059Z,18.74
2023-03-06T02:05:23.088Z,18.72
2023-03-06T02:05:33.055Z,18.74
2023-03-06T02:05:43.115Z,18.72
2023-03-06T02:05:53.058Z,18.69
2023-03-06T02:06:03.065Z,18.74
2023-03-06T02:06:13.057Z,18.74
2023-03-06T02:06:23.081Z,18.74
2023-03-06T02:06:33.046Z,18.72
2023-03-06T02:06:43.093Z,18.74
2023-03-06T02:06:53.057Z,18.75
2023-03-06T02:07:03.079Z,18.74
2023-03-06T02:07:13.046Z,18.75
2023-03-06T02:07:23.083Z,18.74
2023-03-06T02:07:33.040Z,18.74
2023-03-06T02:07:43.073Z,18.78
2023-03-06T02:07:53.049Z,18.75
2023-03-06T02:08:03.070Z,18.78
2023-03-06T02:08:13.051Z,18.75
2023-03-06T02:08:23.083Z,18.78
2023-03-06T02:08:33.041Z,18.76
2023-03-06T02:08:43.052Z,18.78
2023-03-06T02:08:53.036Z,18.78
2023-03-06T02:09:03.047Z,18.75
2023-03-06T02:09:13.028Z,18.76
2023-03-06T02:09:23.056Z,18.76
2023-03-06T02:09:33.032Z,18.76
2023-03-06T02:09:43.056Z,18.78
2023-03-06T02:09:53.053Z,18.75
2023-03-06T02:10:03.056Z,18.78
2023-03-06T02:10:13.030Z,18.79
2023-03-06T02:10:23.036Z,18.82
2023-03-06T02:10:33.020Z,18.76
2023-03-06T02:10:43.052Z,18.78
2023-03-06T02:10:53.016Z,18.78
2023-03-06T02:11:03.051Z,18.79
2023-03-06T02:11:13.126Z,18.78
2023-03-06T02:11:23.170Z,18.76
2023-03-06T02:11:33.091Z,18.78
2023-03-06T02:11:43.094Z,18.78
2023-03-06T02:11:53.009Z,18.78
2023-03-06T02:12:03.068Z,18.76
2023-03-06T02:12:13.012Z,18.79
2023-03-06T02:12:23.035Z,18.79
2023-03-06T02:12:33.007Z,18.76
2023-03-06T02:12:43.037Z,18.76
2023-03-06T02:12:53.021Z,18.79
2023-03-06T02:13:03.021Z,18.79
2023-03-06T02:13:13.013Z,18.75
2023-03-06T02:13:23.029Z,18.76
2023-03-06T02:13:33.004Z,18.78
2023-03-06T02:13:43.036Z,18.78
2023-03-06T02:13:52.997Z,18.76
2023-03-06T02:14:03.060Z,18.76
2023-03-06T02:14:12.992Z,18.76
2023-03-06T02:14:23.033Z,18.75
2023-03-06T02:14:32.992Z,18.78
2023-03-06T02:14:43.006Z,18.82
2023-03-06T02:14:52.995Z,18.78
2023-03-06T02:15:03.020Z,18.79
2023-03-06T02:15:13.000Z,18.78
2023-03-06T02:15:23.026Z,18.84
2023-03-06T02:15:32.987Z,18.79
2023-03-06T02:15:43.010Z,18.79
2023-03-06T02:15:52.988Z,18.79
2023-03-06T02:16:02.998Z,18.79
2023-03-06T02:16:12.981Z,18.78
2023-03-06T02:16:23.052Z,18.78